Jacobs, Texas
Current Conditions -  °F | °C
As of 1:15 PM on Saturday 20 Dec 2014 (Local Time) from KRFI Reporting Station
Overcast Overcast  
Wind Chill: 49°   Ceiling: 1400
Heat Index: 49°   Visibility: 10mi
Dew Point: 43°   Wind: 3mph
Humidity: 79%   Direction: 90°E
Pressure: 30.22"   Gusts: NA
Location:  32.2818°N, 94.951°W
Report Text: KRFI 201915Z AUTO 09003KT 10SM OVC014 10/06 A3022 RMK AO2 T00970063
Loading
Personal Weather Stations






























Interactive Weather Map New forecast layout! Learn more

10-Day Weather Forecast

Advertisements
Track Severe Weather on mobile